Terminal Aerodrome Forecast
Issued by NWS Duluth, MN

Home | Current Version | Previous Version | Text Only | Print | Product List | Glossary On
Versions: 1 2 3 4 5 6 7 8 9 10 11 12 13 14 15 16 17 18 19 20 21 22 23 24 25
000
FTUS43 KDLH 031831 AAB
TAFDLH
TAF AMD
KDLH 031831Z 0319/0418 31011G20KT P6SM VCSH BKN040
     FM040300 31006KT P6SM SCT030 BKN070
     FM041600 33019KT P6SM SCT040=

USA.gov is the U.S. government's official web portal to all federal, state and local government web resources and services.